createdAt,value
2019-03-06T00:00:37.016Z,54.24
2019-03-06T00:02:38.603Z,54.13
2019-03-06T00:04:40.246Z,54.21
2019-03-06T00:06:42.151Z,54.41
2019-03-06T00:08:43.763Z,54.66
2019-03-06T00:10:45.366Z,54.74
2019-03-06T00:12:46.971Z,54.84
2019-03-06T00:14:48.574Z,55.04
2019-03-06T00:16:50.169Z,55.12
2019-03-06T00:18:51.760Z,55.36
2019-03-06T00:20:53.395Z,55.66
2019-03-06T00:22:55.008Z,55.91
2019-03-06T00:24:56.616Z,56.53
2019-03-06T00:26:58.209Z,56.67
2019-03-06T00:28:59.805Z,56.92
2019-03-06T00:31:01.421Z,57.29
2019-03-06T00:33:03.053Z,57.49
2019-03-06T00:35:04.657Z,57.59
2019-03-06T00:37:06.286Z,57.78
2019-03-06T00:39:07.900Z,58.13
2019-03-06T00:41:10.094Z,58.00
2019-03-06T00:43:11.729Z,58.15
2019-03-06T00:45:13.344Z,58.31
2019-03-06T00:47:14.988Z,58.41
2019-03-06T00:49:16.604Z,58.32
2019-03-06T00:51:18.202Z,58.23
2019-03-06T00:53:19.829Z,58.13
2019-03-06T00:55:21.443Z,58.21
2019-03-06T00:57:23.164Z,58.15
2019-03-06T00:59:24.823Z,58.66
2019-03-06T01:01:26.440Z,58.55
2019-03-06T01:03:28.065Z,58.41
2019-03-06T01:05:29.647Z,58.91
2019-03-06T01:07:31.268Z,58.53
2019-03-06T01:09:32.869Z,58.28
2019-03-06T01:11:34.481Z,58.94
2019-03-06T01:13:36.106Z,58.31
2019-03-06T01:15:37.720Z,58.27
2019-03-06T01:17:39.319Z,58.87
2019-03-06T01:19:40.974Z,58.02
2019-03-06T01:21:42.576Z,58.00
2019-03-06T01:23:44.209Z,58.52
2019-03-06T01:25:45.817Z,58.23
2019-03-06T01:27:47.400Z,58.61
2019-03-06T01:29:49.055Z,58.32
2019-03-06T01:31:50.654Z,58.37
2019-03-06T01:33:52.292Z,58.37
2019-03-06T01:35:57.781Z,58.16
2019-03-06T01:38:05.208Z,58.18
2019-03-06T01:40:07.287Z,58.13
2019-03-06T01:42:09.804Z,58.16
2019-03-06T01:44:12.011Z,58.14
2019-03-06T01:46:13.628Z,58.23
2019-03-06T01:48:15.233Z,57.95
2019-03-06T01:50:16.851Z,58.07
2019-03-06T01:52:18.500Z,58.11
2019-03-06T01:54:20.094Z,57.69
2019-03-06T01:56:21.718Z,57.84
2019-03-06T01:58:23.323Z,57.68
2019-03-06T02:00:24.926Z,58.00
2019-03-06T02:02:26.622Z,57.79
2019-03-06T02:04:28.213Z,57.54
2019-03-06T02:06:29.832Z,57.54
2019-03-06T02:08:31.434Z,57.47
2019-03-06T02:10:33.043Z,57.17
2019-03-06T02:12:34.729Z,57.34
2019-03-06T02:14:36.345Z,57.26
2019-03-06T02:16:38.010Z,57.52
2019-03-06T02:18:39.600Z,56.96
2019-03-06T02:20:41.205Z,57.26
2019-03-06T02:22:42.798Z,57.02
2019-03-06T02:24:44.476Z,57.11
2019-03-06T02:26:46.107Z,56.90
2019-03-06T02:28:47.710Z,56.83
2019-03-06T02:30:49.309Z,57.12
2019-03-06T02:32:50.918Z,57.24
2019-03-06T02:34:52.535Z,57.15
2019-03-06T02:36:54.142Z,57.07
2019-03-06T02:38:55.786Z,57.16
2019-03-06T02:40:57.398Z,57.05
2019-03-06T02:42:58.994Z,57.21
2019-03-06T02:45:00.630Z,57.16
2019-03-06T02:47:02.242Z,57.17
2019-03-06T02:49:03.883Z,57.14
2019-03-06T02:51:05.526Z,57.13
2019-03-06T02:53:07.175Z,57.21
2019-03-06T02:55:08.789Z,57.51
2019-03-06T02:57:10.390Z,57.31
2019-03-06T02:59:12.031Z,57.29
2019-03-06T03:01:29.246Z,57.26
2019-03-06T03:03:31.789Z,57.19
2019-03-06T03:05:39.089Z,57.24
2019-03-06T03:07:40.694Z,57.33
2019-03-06T03:09:42.320Z,57.40
2019-03-06T03:11:43.922Z,57.30
2019-03-06T03:13:45.521Z,57.63
2019-03-06T03:15:47.122Z,58.04
2019-03-06T03:17:48.744Z,57.65
2019-03-06T03:19:50.380Z,57.69
2019-03-06T03:21:51.985Z,57.81
2019-03-06T03:23:53.635Z,57.54
2019-03-06T03:25:55.272Z,57.89
2019-03-06T03:27:56.881Z,57.51
2019-03-06T03:29:58.526Z,57.27
2019-03-06T03:32:00.150Z,57.44
2019-03-06T03:34:01.766Z,57.70
2019-03-06T03:36:03.369Z,57.64
2019-03-06T03:38:04.966Z,57.32
2019-03-06T03:40:06.567Z,57.19
2019-03-06T03:42:08.165Z,57.04
2019-03-06T03:44:09.763Z,57.05
2019-03-06T03:46:11.370Z,56.86
2019-03-06T03:48:12.969Z,56.92
2019-03-06T03:50:14.575Z,56.65
2019-03-06T03:52:16.284Z,56.69
2019-03-06T03:54:17.871Z,56.69
2019-03-06T03:56:19.519Z,56.79
2019-03-06T03:58:21.126Z,56.53
2019-03-06T04:00:22.773Z,56.67
2019-03-06T04:02:24.453Z,56.45
2019-03-06T04:04:26.057Z,56.41
2019-03-06T04:06:27.705Z,56.37
2019-03-06T04:08:29.323Z,56.15
2019-03-06T04:10:30.926Z,56.02
2019-03-06T04:12:34.266Z,55.97
2019-03-06T04:14:34.242Z,56.00
2019-03-06T04:16:35.893Z,55.99
2019-03-06T04:18:37.494Z,55.94
2019-03-06T04:20:39.091Z,56.01
2019-03-06T04:22:40.734Z,55.96
2019-03-06T04:24:42.348Z,56.34
2019-03-06T04:26:44.008Z,56.33
2019-03-06T04:28:45.632Z,56.32
2019-03-06T04:30:47.307Z,56.60
2019-03-06T04:32:48.941Z,56.66
2019-03-06T04:34:50.556Z,56.78
2019-03-06T04:36:52.162Z,56.95
2019-03-06T04:38:53.790Z,57.03
2019-03-06T04:40:55.436Z,57.59
2019-03-06T04:42:57.060Z,57.76
2019-03-06T04:44:58.653Z,58.16
2019-03-06T04:47:00.255Z,58.37
2019-03-06T04:49:01.867Z,58.44
2019-03-06T04:51:03.475Z,58.72
2019-03-06T04:53:05.086Z,58.68
2019-03-06T04:55:06.704Z,58.74
2019-03-06T04:57:08.308Z,58.65
2019-03-06T04:59:09.938Z,58.71
2019-03-06T05:01:11.542Z,58.51
2019-03-06T05:03:13.148Z,58.28
2019-03-06T05:05:14.787Z,57.98
2019-03-06T05:07:16.393Z,57.81
2019-03-06T05:09:18.031Z,57.66
2019-03-06T05:11:19.649Z,57.51
2019-03-06T05:13:21.267Z,57.82
2019-03-06T05:15:23.612Z,57.78
2019-03-06T05:17:25.936Z,57.68
2019-03-06T05:19:27.554Z,58.52
2019-03-06T05:21:29.173Z,58.22
2019-03-06T05:23:30.784Z,58.14
2019-03-06T05:25:32.542Z,57.70
2019-03-06T05:27:34.153Z,57.66
2019-03-06T05:29:35.820Z,57.26
2019-03-06T05:31:37.425Z,57.06
2019-03-06T05:33:39.051Z,57.04
2019-03-06T05:35:40.646Z,56.79
2019-03-06T05:37:42.252Z,56.75
2019-03-06T05:39:43.919Z,56.77
2019-03-06T05:41:45.531Z,56.68
2019-03-06T05:43:47.141Z,56.71
2019-03-06T05:45:48.793Z,56.54
2019-03-06T05:47:50.412Z,56.68
2019-03-06T05:49:52.075Z,56.57
2019-03-06T05:51:53.682Z,56.36
2019-03-06T05:53:55.291Z,56.49
2019-03-06T05:55:56.893Z,56.58
2019-03-06T05:57:58.489Z,57.06
2019-03-06T06:00:00.318Z,56.70
2019-03-06T06:02:01.794Z,56.84
2019-03-06T06:04:03.398Z,57.04
2019-03-06T06:06:04.998Z,57.10
2019-03-06T06:08:06.620Z,57.75
2019-03-06T06:10:08.268Z,57.30
2019-03-06T06:12:09.885Z,57.30
2019-03-06T06:14:11.495Z,57.70
2019-03-06T06:16:13.099Z,57.78
2019-03-06T06:18:14.712Z,57.94
2019-03-06T06:20:16.365Z,57.92
2019-03-06T06:22:20.617Z,58.05
2019-03-06T06:24:22.249Z,58.62
2019-03-06T06:26:23.850Z,58.78
2019-03-06T06:28:25.500Z,58.60
2019-03-06T06:30:27.161Z,58.81
2019-03-06T06:32:28.776Z,58.76
2019-03-06T06:34:30.367Z,58.66
2019-03-06T06:36:31.969Z,58.73
2019-03-06T06:38:33.609Z,58.85
2019-03-06T06:40:35.804Z,58.87
2019-03-06T06:42:36.936Z,58.73
2019-03-06T06:44:38.534Z,58.65
2019-03-06T06:46:40.149Z,58.46
2019-03-06T06:48:41.760Z,58.22
2019-03-06T06:50:43.446Z,57.87
2019-03-06T06:52:45.049Z,57.79
2019-03-06T06:54:46.668Z,57.33
2019-03-06T06:56:48.333Z,57.35
2019-03-06T06:58:49.940Z,57.17
2019-03-06T07:00:52.227Z,56.97
2019-03-06T07:02:59.470Z,56.81
2019-03-06T07:05:16.697Z,56.75
2019-03-06T07:07:24.110Z,56.46
2019-03-06T07:09:44.480Z,56.23
2019-03-06T07:12:01.086Z,56.23
2019-03-06T07:14:06.173Z,56.11
2019-03-06T07:16:13.368Z,56.12
2019-03-06T07:18:20.590Z,56.13
2019-03-06T07:20:24.941Z,56.16
2019-03-06T07:22:45.315Z,56.09
2019-03-06T07:24:53.552Z,56.27
2019-03-06T07:26:58.606Z,56.36
2019-03-06T07:29:02.951Z,56.33
2019-03-06T07:31:08.966Z,56.34
2019-03-06T07:33:13.198Z,56.92
2019-03-06T07:35:16.206Z,56.73
2019-03-06T07:37:17.811Z,56.76
2019-03-06T07:39:21.035Z,56.73
2019-03-06T07:41:22.629Z,56.60
2019-03-06T07:43:26.737Z,56.56
2019-03-06T07:45:28.329Z,57.46
2019-03-06T07:47:34.446Z,57.33
2019-03-06T07:49:54.714Z,57.33
2019-03-06T07:52:06.296Z,56.92
2019-03-06T07:54:25.621Z,56.89
2019-03-06T07:56:30.693Z,56.73
2019-03-06T07:58:32.290Z,56.32
2019-03-06T08:00:33.894Z,56.68
2019-03-06T08:02:35.574Z,55.57
2019-03-06T08:04:37.211Z,55.22
2019-03-06T08:06:38.824Z,55.19
2019-03-06T08:08:40.427Z,55.13
2019-03-06T08:10:42.057Z,54.98
2019-03-06T08:12:43.711Z,54.74
2019-03-06T08:14:51.017Z,54.40
2019-03-06T08:16:54.419Z,54.01
2019-03-06T08:19:11.749Z,53.73
2019-03-06T08:21:14.178Z,53.28
2019-03-06T08:23:30.644Z,53.00
2019-03-06T08:25:37.955Z,52.58
2019-03-06T08:27:39.544Z,52.33
2019-03-06T08:29:41.145Z,52.27
2019-03-06T08:31:42.736Z,52.18
2019-03-06T08:33:44.333Z,52.06
2019-03-06T08:35:45.975Z,52.10
2019-03-06T08:37:47.584Z,51.90
2019-03-06T08:39:49.186Z,51.82
2019-03-06T08:41:50.836Z,51.82
2019-03-06T08:43:52.459Z,51.80
2019-03-06T08:45:59.044Z,51.86
2019-03-06T08:48:04.747Z,51.95
2019-03-06T08:50:07.290Z,52.08
2019-03-06T08:52:12.649Z,52.12
2019-03-06T08:54:31.136Z,52.21
2019-03-06T08:56:33.228Z,52.31
2019-03-06T08:58:36.308Z,52.36
2019-03-06T09:00:51.758Z,52.39
2019-03-06T09:02:54.196Z,52.50
2019-03-06T09:04:59.706Z,52.99
2019-03-06T09:07:05.198Z,53.39
2019-03-06T09:09:11.565Z,53.67
2019-03-06T09:11:23.078Z,53.73
2019-03-06T09:13:27.951Z,53.34
2019-03-06T09:15:47.847Z,53.34
2019-03-06T09:18:09.028Z,53.11
2019-03-06T09:20:11.679Z,53.03
2019-03-06T09:22:33.701Z,52.97
2019-03-06T09:24:42.078Z,52.96
2019-03-06T09:26:46.185Z,52.88
2019-03-06T09:28:49.857Z,52.93
2019-03-06T09:30:51.450Z,52.90
2019-03-06T09:32:54.878Z,52.89
2019-03-06T09:35:00.017Z,52.93
2019-03-06T09:37:03.516Z,53.00
2019-03-06T09:39:06.572Z,52.95
2019-03-06T09:41:13.883Z,52.90
2019-03-06T09:43:15.585Z,52.69
2019-03-06T09:45:18.026Z,52.41
2019-03-06T09:47:20.405Z,52.25
2019-03-06T09:49:22.014Z,51.91
2019-03-06T09:51:26.470Z,51.57
2019-03-06T09:53:29.678Z,51.31
2019-03-06T09:55:46.966Z,51.11
2019-03-06T09:57:49.425Z,51.06
2019-03-06T09:59:51.826Z,51.00
2019-03-06T10:02:07.101Z,50.79
2019-03-06T10:04:15.745Z,50.62
2019-03-06T10:06:22.284Z,50.51
2019-03-06T10:08:26.046Z,50.46
2019-03-06T10:10:46.386Z,50.41
2019-03-06T10:12:47.886Z,50.45
2019-03-06T10:14:53.377Z,50.42
2019-03-06T10:16:57.774Z,50.51
2019-03-06T10:18:59.378Z,50.59
2019-03-06T10:21:01.016Z,50.67
2019-03-06T10:23:02.663Z,50.76
2019-03-06T10:25:04.330Z,50.85
2019-03-06T10:27:06.225Z,50.98
2019-03-06T10:29:07.885Z,50.99
2019-03-06T10:31:09.496Z,51.13
2019-03-06T10:33:11.114Z,51.16
2019-03-06T10:35:12.738Z,51.15
2019-03-06T10:37:14.369Z,51.13
2019-03-06T10:39:16.047Z,51.18
2019-03-06T10:41:17.666Z,51.21
2019-03-06T10:43:19.302Z,51.26
2019-03-06T10:45:20.968Z,51.42
2019-03-06T10:47:22.640Z,51.50
2019-03-06T10:49:24.256Z,51.57
2019-03-06T10:51:25.868Z,51.60
2019-03-06T10:53:27.469Z,51.70
2019-03-06T10:55:29.123Z,51.79
2019-03-06T10:57:30.758Z,51.83
2019-03-06T10:59:32.386Z,51.82
2019-03-06T11:01:34.044Z,51.89
2019-03-06T11:03:36.314Z,51.97
2019-03-06T11:05:38.147Z,52.04
2019-03-06T11:07:39.780Z,52.08
2019-03-06T11:09:41.430Z,51.94
2019-03-06T11:11:43.064Z,51.73
2019-03-06T11:13:44.668Z,51.68
2019-03-06T11:15:55.191Z,51.64
2019-03-06T11:17:47.985Z,51.52
2019-03-06T11:19:49.634Z,51.34
2019-03-06T11:21:51.254Z,51.17
2019-03-06T11:23:53.238Z,50.93
2019-03-06T11:25:54.841Z,50.76
2019-03-06T11:27:56.480Z,50.71
2019-03-06T11:29:58.264Z,50.50
2019-03-06T11:31:59.791Z,50.49
2019-03-06T11:34:01.448Z,50.33
2019-03-06T11:36:03.084Z,50.16
2019-03-06T11:38:04.760Z,50.09
2019-03-06T11:40:06.729Z,50.02
2019-03-06T11:42:08.391Z,49.95
2019-03-06T11:44:09.993Z,49.83
2019-03-06T11:46:11.600Z,49.80
2019-03-06T11:48:13.191Z,49.74
2019-03-06T11:50:14.829Z,49.77
2019-03-06T11:52:16.456Z,49.66
2019-03-06T11:54:18.076Z,49.66
2019-03-06T11:56:19.686Z,49.72
2019-03-06T11:58:21.292Z,49.76
2019-03-06T12:00:32.825Z,49.78
2019-03-06T12:02:34.450Z,49.84
2019-03-06T12:04:36.067Z,50.04
2019-03-06T12:06:37.681Z,50.15
2019-03-06T12:08:45.520Z,50.38
2019-03-06T12:10:40.942Z,50.50
2019-03-06T12:12:42.545Z,50.57
2019-03-06T12:14:44.155Z,50.73
2019-03-06T12:16:46.206Z,50.77
2019-03-06T12:18:47.827Z,50.85
2019-03-06T12:20:49.458Z,50.92
2019-03-06T12:22:52.510Z,50.97
2019-03-06T12:24:54.263Z,51.11
2019-03-06T12:26:56.363Z,51.05
2019-03-06T12:28:58.700Z,51.09
2019-03-06T12:31:00.306Z,51.17
2019-03-06T12:33:01.937Z,51.19
2019-03-06T12:35:03.542Z,51.14
2019-03-06T12:37:08.988Z,51.11
2019-03-06T12:39:10.657Z,51.14
2019-03-06T12:41:12.773Z,51.08
2019-03-06T12:43:14.045Z,51.10
2019-03-06T12:45:15.671Z,51.19
2019-03-06T12:47:17.626Z,51.30
2019-03-06T12:49:19.229Z,51.34
2019-03-06T12:51:20.838Z,51.47
2019-03-06T12:53:22.489Z,51.54
2019-03-06T12:55:24.151Z,51.51
2019-03-06T12:57:25.786Z,51.46
2019-03-06T12:59:27.395Z,51.31
2019-03-06T13:01:29.027Z,51.24
2019-03-06T13:03:30.670Z,51.09
2019-03-06T13:05:32.344Z,51.10
2019-03-06T13:07:34.126Z,51.00
2019-03-06T13:09:37.621Z,50.98
2019-03-06T13:11:38.209Z,50.78
2019-03-06T13:13:41.312Z,50.63
2019-03-06T13:15:42.944Z,50.58
2019-03-06T13:17:44.571Z,50.48
2019-03-06T13:19:46.181Z,50.43
2019-03-06T13:21:47.842Z,50.26
2019-03-06T13:23:49.440Z,50.16
2019-03-06T13:25:51.050Z,50.14
2019-03-06T13:27:55.102Z,49.98
2019-03-06T13:29:54.962Z,49.98
2019-03-06T13:31:56.785Z,50.22
2019-03-06T13:34:02.122Z,50.49
2019-03-06T13:36:03.766Z,50.52
2019-03-06T13:38:05.400Z,50.69
2019-03-06T13:40:07.090Z,51.05
2019-03-06T13:42:08.702Z,51.17
2019-03-06T13:44:10.473Z,51.34
2019-03-06T13:46:12.101Z,51.57
2019-03-06T13:48:13.707Z,52.01
2019-03-06T13:50:15.493Z,52.24
2019-03-06T13:52:17.200Z,52.65
2019-03-06T13:54:20.059Z,52.61
2019-03-06T13:56:23.953Z,52.64
2019-03-06T13:58:25.570Z,52.74
2019-03-06T14:00:27.184Z,52.85
2019-03-06T14:02:28.775Z,53.00
2019-03-06T14:04:31.036Z,53.21
2019-03-06T14:06:32.019Z,53.63
2019-03-06T14:08:37.260Z,53.94
2019-03-06T14:10:38.862Z,54.59
2019-03-06T14:12:40.506Z,54.66
2019-03-06T14:14:42.166Z,53.52
2019-03-06T14:16:43.792Z,53.18
2019-03-06T14:18:45.424Z,53.96
2019-03-06T14:20:47.431Z,53.68
2019-03-06T14:22:49.046Z,53.76
2019-03-06T14:24:50.713Z,53.37
2019-03-06T14:26:52.742Z,53.66
2019-03-06T14:28:54.368Z,54.25
2019-03-06T14:30:56.036Z,53.42
2019-03-06T14:32:57.656Z,52.77
2019-03-06T14:34:59.512Z,51.94
2019-03-06T14:37:01.163Z,52.34
2019-03-06T14:39:02.890Z,53.22
2019-03-06T14:41:04.556Z,52.68
2019-03-06T14:43:06.179Z,52.22
2019-03-06T14:45:07.796Z,52.71
2019-03-06T14:47:09.409Z,52.69
2019-03-06T14:49:11.072Z,52.41
2019-03-06T14:51:17.708Z,52.01
2019-03-06T14:53:19.807Z,51.48
2019-03-06T14:55:21.417Z,50.98
2019-03-06T14:57:23.024Z,50.99
2019-03-06T14:59:24.699Z,50.94
2019-03-06T15:01:26.313Z,51.71
2019-03-06T15:03:28.294Z,51.93
2019-03-06T15:05:29.918Z,52.17
2019-03-06T15:07:31.535Z,52.35
2019-03-06T15:09:33.150Z,52.38
2019-03-06T15:11:34.770Z,52.68
2019-03-06T15:13:36.386Z,52.99
2019-03-06T15:15:38.008Z,52.77
2019-03-06T15:17:39.729Z,52.49
2019-03-06T15:19:41.633Z,52.86
2019-03-06T15:21:43.249Z,52.89
2019-03-06T15:23:44.910Z,53.21
2019-03-06T15:25:46.561Z,53.23
2019-03-06T15:27:48.165Z,53.22
2019-03-06T15:29:49.786Z,52.95
2019-03-06T15:31:51.663Z,53.47
2019-03-06T15:33:53.409Z,53.27
2019-03-06T15:35:55.025Z,54.10
2019-03-06T15:37:56.681Z,53.32
2019-03-06T15:39:58.301Z,53.55
2019-03-06T15:42:01.459Z,53.81
2019-03-06T15:44:01.597Z,53.91
2019-03-06T15:46:03.560Z,53.97
2019-03-06T15:48:05.201Z,54.18
2019-03-06T15:50:06.835Z,54.25
2019-03-06T15:52:08.541Z,54.25
2019-03-06T15:54:10.170Z,54.43
2019-03-06T15:56:11.776Z,54.55
2019-03-06T15:58:13.443Z,54.63
2019-03-06T16:00:15.070Z,53.81
2019-03-06T16:02:16.780Z,54.11
2019-03-06T16:04:18.394Z,53.96
2019-03-06T16:06:20.709Z,53.84
2019-03-06T16:08:21.658Z,53.83
2019-03-06T16:10:23.283Z,53.79
2019-03-06T16:12:25.786Z,53.57
2019-03-06T16:14:27.425Z,53.46
2019-03-06T16:16:29.038Z,53.42
2019-03-06T16:18:30.674Z,53.42
2019-03-06T16:20:32.286Z,53.29
2019-03-06T16:22:33.880Z,53.26
2019-03-06T16:24:37.499Z,53.24
2019-03-06T16:26:37.185Z,52.96
2019-03-06T16:28:38.886Z,52.78
2019-03-06T16:30:40.502Z,52.88
2019-03-06T16:32:42.118Z,52.67
2019-03-06T16:34:43.776Z,52.72
2019-03-06T16:36:45.385Z,52.48
2019-03-06T16:38:47.040Z,52.68
2019-03-06T16:40:48.736Z,52.73
2019-03-06T16:42:51.034Z,52.55
2019-03-06T16:44:52.650Z,52.43
2019-03-06T16:46:54.320Z,52.36
2019-03-06T16:48:56.022Z,52.27
2019-03-06T16:50:57.641Z,52.20
2019-03-06T16:52:59.584Z,52.28
2019-03-06T16:55:01.697Z,52.22
2019-03-06T16:57:03.391Z,52.17
2019-03-06T16:59:05.034Z,52.19
2019-03-06T17:01:06.657Z,52.16
2019-03-06T17:03:08.302Z,52.05
2019-03-06T17:05:09.956Z,52.21
2019-03-06T17:07:12.277Z,51.99
2019-03-06T17:09:13.972Z,52.19
2019-03-06T17:11:15.601Z,52.15
2019-03-06T17:13:17.253Z,52.13
2019-03-06T17:15:18.877Z,52.32
2019-03-06T17:17:20.559Z,52.23
2019-03-06T17:19:22.216Z,52.33
2019-03-06T17:21:23.824Z,52.26
2019-03-06T17:23:25.938Z,52.33
2019-03-06T17:25:28.474Z,52.23
2019-03-06T17:27:29.938Z,52.25
2019-03-06T17:29:31.587Z,52.38
2019-03-06T17:31:33.242Z,52.34
2019-03-06T17:33:34.860Z,52.33
2019-03-06T17:35:36.488Z,52.34
2019-03-06T17:37:38.117Z,52.53
2019-03-06T17:39:39.757Z,52.36
2019-03-06T17:41:41.441Z,52.39
2019-03-06T17:43:43.049Z,52.37
2019-03-06T17:45:44.656Z,52.27
2019-03-06T17:47:46.282Z,52.41
2019-03-06T17:49:47.959Z,52.43
2019-03-06T17:51:49.577Z,52.41
2019-03-06T17:53:51.182Z,52.38
2019-03-06T17:55:52.856Z,52.30
2019-03-06T17:57:54.535Z,52.39
2019-03-06T17:59:56.155Z,52.37
2019-03-06T18:01:58.045Z,52.55
2019-03-06T18:04:01.486Z,52.46
2019-03-06T18:06:03.137Z,52.31
2019-03-06T18:08:04.755Z,52.24
2019-03-06T18:10:06.390Z,52.18
2019-03-06T18:12:08.003Z,52.04
2019-03-06T18:14:09.654Z,51.79
2019-03-06T18:16:11.306Z,51.86
2019-03-06T18:18:12.926Z,51.74
2019-03-06T18:20:14.548Z,51.67
2019-03-06T18:22:16.186Z,51.61
2019-03-06T18:24:17.849Z,51.70
2019-03-06T18:26:19.462Z,51.60
2019-03-06T18:28:21.065Z,51.58
2019-03-06T18:30:22.677Z,51.67
2019-03-06T18:32:24.433Z,51.64
2019-03-06T18:34:26.203Z,51.55
2019-03-06T18:36:27.817Z,51.57
2019-03-06T18:38:30.275Z,51.55
2019-03-06T18:40:31.904Z,51.48
2019-03-06T18:42:34.038Z,51.57
2019-03-06T18:44:35.652Z,51.55
2019-03-06T18:46:37.278Z,51.58
2019-03-06T18:48:39.126Z,49.08
2019-03-06T18:50:40.778Z,47.60
2019-03-06T18:52:42.399Z,45.96
2019-03-06T18:54:44.079Z,46.11
2019-03-06T18:56:45.754Z,45.19
2019-03-06T18:58:47.361Z,44.73
2019-03-06T19:00:49.044Z,45.58
2019-03-06T19:02:50.721Z,46.11
2019-03-06T19:04:52.508Z,46.27
2019-03-06T19:06:54.129Z,46.66
2019-03-06T19:08:55.782Z,46.89
2019-03-06T19:10:57.404Z,46.97
2019-03-06T19:12:59.047Z,47.25
2019-03-06T19:15:00.727Z,47.38
2019-03-06T19:17:02.400Z,47.54
2019-03-06T19:19:04.021Z,47.71
2019-03-06T19:21:05.903Z,47.84
2019-03-06T19:23:07.542Z,47.98
2019-03-06T19:25:09.880Z,48.05
2019-03-06T19:27:11.480Z,48.12
2019-03-06T19:29:13.094Z,48.23
2019-03-06T19:31:14.779Z,48.26
2019-03-06T19:33:16.413Z,48.40
2019-03-06T19:35:18.346Z,48.44
2019-03-06T19:37:20.091Z,48.54
2019-03-06T19:39:22.404Z,48.59
2019-03-06T19:41:23.431Z,48.65
2019-03-06T19:43:25.077Z,48.71
2019-03-06T19:45:26.738Z,48.77
2019-03-06T19:47:28.407Z,48.79
2019-03-06T19:49:30.033Z,48.86
2019-03-06T19:51:31.702Z,48.92
2019-03-06T19:53:33.319Z,48.99
2019-03-06T19:55:35.766Z,49.09
2019-03-06T19:57:37.368Z,49.13
2019-03-06T19:59:38.982Z,49.17
2019-03-06T20:01:40.599Z,49.26
2019-03-06T20:03:42.291Z,49.34
2019-03-06T20:05:43.938Z,49.41
2019-03-06T20:07:47.133Z,49.42
2019-03-06T20:09:47.488Z,49.48
2019-03-06T20:11:49.106Z,49.37
2019-03-06T20:13:50.712Z,48.88
2019-03-06T20:15:52.331Z,49.98
2019-03-06T20:17:54.004Z,49.19
2019-03-06T20:19:55.656Z,49.36
2019-03-06T20:21:57.286Z,49.18
2019-03-06T20:23:59.381Z,49.12
2019-03-06T20:26:01.054Z,49.48
2019-03-06T20:28:02.693Z,49.13
2019-03-06T20:30:04.342Z,49.05
2019-03-06T20:32:05.976Z,49.14
2019-03-06T20:34:08.211Z,47.49
2019-03-06T20:36:09.844Z,47.89
2019-03-06T20:38:11.459Z,48.44
2019-03-06T20:40:13.092Z,48.08
2019-03-06T20:42:14.697Z,48.13
2019-03-06T20:44:17.799Z,48.67
2019-03-06T20:46:18.004Z,49.35
2019-03-06T20:48:19.647Z,48.61
2019-03-06T20:50:21.311Z,48.83
2019-03-06T20:52:23.091Z,49.35
2019-03-06T20:54:27.348Z,50.16
2019-03-06T20:56:27.561Z,50.17
2019-03-06T20:58:29.911Z,50.50
2019-03-06T21:00:31.533Z,50.54
2019-03-06T21:02:33.204Z,50.37
2019-03-06T21:04:34.852Z,49.19
2019-03-06T21:06:36.531Z,49.64
2019-03-06T21:08:38.118Z,50.01
2019-03-06T21:10:39.742Z,50.61
2019-03-06T21:12:41.358Z,50.76
2019-03-06T21:14:43.015Z,50.31
2019-03-06T21:16:45.028Z,49.16
2019-03-06T21:18:46.655Z,50.15
2019-03-06T21:20:48.339Z,50.21
2019-03-06T21:22:50.065Z,50.37
2019-03-06T21:24:51.674Z,49.12
2019-03-06T21:27:03.204Z,49.70
2019-03-06T21:29:04.868Z,50.14
2019-03-06T21:31:06.492Z,50.46
2019-03-06T21:33:08.160Z,50.39
2019-03-06T21:35:09.842Z,49.31
2019-03-06T21:37:11.460Z,49.85
2019-03-06T21:39:13.090Z,50.58
2019-03-06T21:41:14.775Z,50.49
2019-03-06T21:43:16.433Z,50.42
2019-03-06T21:45:18.044Z,51.10
2019-03-06T21:47:20.119Z,51.16
2019-03-06T21:49:21.744Z,50.71
2019-03-06T21:51:23.380Z,51.13
2019-03-06T21:53:25.020Z,51.13
2019-03-06T21:55:26.656Z,50.68
2019-03-06T21:57:28.283Z,51.37
2019-03-06T21:59:29.936Z,51.22
2019-03-06T22:01:31.581Z,51.41
2019-03-06T22:03:33.223Z,51.55
2019-03-06T22:05:34.839Z,51.50
2019-03-06T22:07:36.509Z,51.50
2019-03-06T22:09:38.134Z,51.39
2019-03-06T22:11:39.746Z,51.62
2019-03-06T22:13:41.353Z,51.19
2019-03-06T22:15:42.998Z,51.27
2019-03-06T22:17:44.602Z,50.99
2019-03-06T22:19:46.263Z,50.94
2019-03-06T22:21:47.886Z,51.50
2019-03-06T22:23:49.497Z,51.03
2019-03-06T22:25:51.094Z,51.14
2019-03-06T22:27:52.732Z,50.83
2019-03-06T22:29:54.394Z,50.77
2019-03-06T22:31:56.022Z,50.59
2019-03-06T22:33:57.703Z,50.56
2019-03-06T22:35:59.319Z,51.15
2019-03-06T22:38:00.929Z,51.61
2019-03-06T22:40:02.578Z,52.25
2019-03-06T22:42:04.234Z,52.72
2019-03-06T22:44:05.847Z,53.06
2019-03-06T22:46:07.483Z,53.40
2019-03-06T22:48:09.088Z,53.57
2019-03-06T22:50:10.708Z,53.73
2019-03-06T22:52:12.330Z,53.67
2019-03-06T22:54:13.960Z,53.75
2019-03-06T22:56:15.581Z,54.28
2019-03-06T22:58:17.198Z,54.26
2019-03-06T23:00:18.902Z,54.20
2019-03-06T23:02:20.512Z,54.27
2019-03-06T23:04:22.189Z,54.21
2019-03-06T23:06:23.807Z,53.93
2019-03-06T23:08:25.467Z,54.23
2019-03-06T23:10:27.127Z,54.32
2019-03-06T23:12:28.759Z,54.21
2019-03-06T23:14:30.414Z,54.36
2019-03-06T23:16:32.021Z,54.27
2019-03-06T23:18:33.635Z,54.14
2019-03-06T23:20:35.264Z,54.01
2019-03-06T23:22:36.885Z,53.98
2019-03-06T23:24:38.570Z,53.86
2019-03-06T23:26:43.109Z,53.85
2019-03-06T23:28:41.880Z,53.80
2019-03-06T23:30:43.522Z,53.89
2019-03-06T23:32:45.160Z,53.89
2019-03-06T23:34:46.794Z,53.93
2019-03-06T23:36:48.416Z,54.06
2019-03-06T23:38:50.089Z,54.10
2019-03-06T23:40:51.724Z,54.22
2019-03-06T23:42:53.355Z,54.37
2019-03-06T23:44:55.064Z,54.37
2019-03-06T23:46:56.681Z,54.49
2019-03-06T23:48:58.338Z,54.60
2019-03-06T23:50:59.935Z,54.67
2019-03-06T23:53:02.036Z,54.79
2019-03-06T23:55:03.707Z,54.81
2019-03-06T23:57:05.336Z,54.83
2019-03-06T23:59:06.977Z,54.99
